Cuchara, Colorado
Current Conditions -  °F | °C
As of 8:54 AM on Sunday 25 Jan 2015 (Local Time) from KTAD Reporting Station
Clear Clear  
Wind Chill: 26°   Ceiling: Unl
Heat Index: 35°   Visibility: 10mi
Dew Point: 25°   Wind: 14mph
Humidity: 67%   Direction: 240°WSW
Pressure: 30.22"   Gusts: NA
Location:  37.52°N, 105°W
Report Text: KTAD 251554Z AUTO 24012KT 10SM CLR 02/M04 A3022 RMK AO2 SLP235 T00171039
Loading
Personal Weather Stations






























Interactive Weather Map New forecast layout! Learn more

10-Day Weather Forecast

Advertisements
Track Severe Weather on mobile